Mayaguez, PR (00682)

3:19 PM AST on October 22, 2019 (GMT -0400)
Finca Alzamora (John Gill terraces), UPRM | | Change Station

Elev 46 ft 18.22 °N, 67.15 °W | Updated 20 minutes ago

Overcast
Overcast
79.2 °F
Feels Like 83 °F
N
0
Wind Variable Wind from ESE
Gusts 2.0 mph

Today
High -- | Low -- °F
--% Chance of Precip.
Yesterday
High -- | Low -- °F
Precip. -- in
Pressure 29.91 in
Visibility 10.0 miles
Clouds Scattered Clouds 2200 ft
Scattered Clouds 2600 ft
Heat Index 83 °F
Dew Point 75 °F
Humidity 88%
Rainfall 0.01 in
Snow Depth Not available.
6:24 AM 6:01 PM
Waning Crescent, 36% visible
METAR TJBQ 221850Z 08011KT 10SM VCTS SCT022 SCT026 29/24 A2991 RMK LTG DSNT ALDQS
Pressure 29.91 in
Visibility 10.0 miles
Clouds Scattered Clouds 2200 ft
Scattered Clouds 2600 ft
Heat Index 83 °F
Dew Point 75 °F
Humidity 88%
Rainfall 0.01 in
Snow Depth Not available.
6:24 AM 6:01 PM
Waning Crescent, 36% visible
METAR TJBQ 221850Z 08011KT 10SM VCTS SCT022 SCT026 29/24 A2991 RMK LTG DSNT ALDQS

Get Your Daily Forecast Email!

Thanks for signing up!

Be on the lookout for a verification email in your inbox.

You'll start receiving severe weather alerts in your inbox..

×

10-Day Weather Forecast

Almanac

Astronomy

Oct. 22, 2019 Rise Set
Actual Time
Civil Twilight
Nautical Twilight
Astronomical Twilight
Moon
Length of Visible Light
Length of Day
Tomorrow will be .
, % of the Moon is Illuminated

Today's Extremes

State Highs State Lows

Community

WunderPhotos

Category 6

Welcome to Category 6. This is the collective home for Weather Underground's featured writeups by Dr. Jeff Masters (right), Bob Henson (left), Chris Burt, and other regular contributors.

Nearby

Air Quality

  Air Quality AQ Index Pollutant
Not available.

Snow Depth

Station Depth Elevation

Earthquake Activity

City Distance Mag. Time & Date
Minimum magnitude displayed is 2.5.

Coastal Water Temperatures

Place Temperature

Stations

Nearby Weather Stations

Station Location Temp. Windchill Dew Point Humidity Wind Precip. Elev Updated Type
                   

Watches & Warnings

Flood Watch / Flood Statement
Issued: 3:07 PM AST Oct. 22, 2019 – National Weather Service

... The urban and small stream flood advisory will expire at 315 PM
AST for Sabana Grande... Guayanilla... San German... Yauco and Penuelas
municipalities...

The heavy rain has ended, and flooding is no longer expected to pose
a threat. However, passing showers are still possible for the next
few hours. Be aware of ponding water in low-lying areas.

Lat... Lon 1803 6689 1806 6711 1817 6708 1814 6686
      1817 6683 1812 6675 1813 6670 1809 6668
      1799 6669 1799 6673 1797 6673 1799 6675
      1797 6675 1801 6677 1798 6681 1797 6681
      1798 6678 1797 6679 1795 6684


Mb/om





Frg/gl/ods/frg


frg/gl/ods/frg